createdAt,value
2017-07-21T00:00:36.807Z,0
2017-07-21T00:01:47.074Z,0
2017-07-21T00:02:57.370Z,0
2017-07-21T00:04:07.646Z,0
2017-07-21T00:05:18.185Z,0
2017-07-21T00:06:28.166Z,0
2017-07-21T00:07:37.831Z,0
2017-07-21T00:08:48.117Z,0
2017-07-21T00:09:58.391Z,0
2017-07-21T00:11:08.299Z,0
2017-07-21T00:12:18.579Z,0
2017-07-21T00:13:28.845Z,0
2017-07-21T00:14:38.824Z,0
2017-07-21T00:15:48.496Z,0
2017-07-21T00:16:58.719Z,0
2017-07-21T00:18:09.041Z,0
2017-07-21T00:19:19.024Z,0
2017-07-21T00:20:29.334Z,0
2017-07-21T00:21:39.307Z,0
2017-07-21T00:22:49.862Z,0
2017-07-21T00:24:00.151Z,0
2017-07-21T00:25:10.420Z,0
2017-07-21T00:26:20.690Z,0
2017-07-21T00:27:30.668Z,0
2017-07-21T00:28:41.211Z,0
2017-07-21T00:29:51.502Z,0
2017-07-21T00:31:01.778Z,0
2017-07-21T00:32:11.722Z,0
2017-07-21T00:33:21.715Z,0
2017-07-21T00:34:32.245Z,0
2017-07-21T00:35:42.515Z,0
2017-07-21T00:36:52.495Z,0
2017-07-21T00:38:02.449Z,0
2017-07-21T00:39:12.430Z,0
2017-07-21T00:40:22.961Z,0
2017-07-21T00:41:32.928Z,0
2017-07-21T00:42:43.220Z,0
2017-07-21T00:43:53.499Z,0
2017-07-21T00:45:03.476Z,0
2017-07-21T00:46:13.691Z,0
2017-07-21T00:47:23.985Z,0
2017-07-21T00:48:33.952Z,0
2017-07-21T00:49:43.907Z,0
2017-07-21T00:50:53.877Z,0
2017-07-21T00:52:04.387Z,0
2017-07-21T00:53:14.365Z,0
2017-07-21T00:54:24.638Z,0
2017-07-21T00:55:34.932Z,0
2017-07-21T00:56:44.910Z,0
2017-07-21T00:57:55.432Z,0
2017-07-21T00:59:05.831Z,0
2017-07-21T01:00:16.130Z,0
2017-07-21T01:01:26.413Z,0
2017-07-21T01:02:36.702Z,0
2017-07-21T01:03:46.931Z,0
2017-07-21T01:04:57.256Z,0
2017-07-21T01:06:07.529Z,0
2017-07-21T01:07:17.808Z,0
2017-07-21T01:08:28.094Z,0
2017-07-21T01:09:38.639Z,0
2017-07-21T01:10:48.629Z,0
2017-07-21T01:11:58.591Z,0
2017-07-21T01:13:08.875Z,0
2017-07-21T01:14:19.163Z,0
2017-07-21T01:15:29.690Z,0
2017-07-21T01:16:39.965Z,0
2017-07-21T01:17:50.239Z,0
2017-07-21T01:19:00.524Z,0
2017-07-21T01:20:10.800Z,0
2017-07-21T01:21:21.004Z,0
2017-07-21T01:22:30.668Z,0
2017-07-21T01:23:40.940Z,0
2017-07-21T01:24:50.910Z,0
2017-07-21T01:26:01.182Z,0
2017-07-21T01:27:11.743Z,0
2017-07-21T01:28:22.024Z,0
2017-07-21T01:29:32.295Z,0
2017-07-21T01:30:42.578Z,0
2017-07-21T01:31:52.560Z,0
2017-07-21T01:33:03.100Z,0
2017-07-21T01:34:13.380Z,0
2017-07-21T01:35:23.341Z,0
2017-07-21T01:36:33.611Z,0
2017-07-21T01:37:43.875Z,0
2017-07-21T01:38:54.086Z,0
2017-07-21T01:40:04.371Z,0
2017-07-21T01:41:14.347Z,0
2017-07-21T01:42:24.310Z,0
2017-07-21T01:43:34.280Z,0
2017-07-21T01:44:44.487Z,0
2017-07-21T01:45:54.754Z,0
2017-07-21T01:47:05.035Z,0
2017-07-21T01:48:15.319Z,0
2017-07-21T01:49:25.287Z,0
2017-07-21T01:50:35.520Z,0
2017-07-21T01:51:45.799Z,0
2017-07-21T01:52:55.762Z,0
2017-07-21T01:54:05.730Z,0
2017-07-21T01:55:15.390Z,0
2017-07-21T01:56:25.949Z,0
2017-07-21T01:57:36.228Z,0
2017-07-21T01:58:46.495Z,0
2017-07-21T01:59:55.841Z,0
2017-07-21T02:01:05.502Z,0
2017-07-21T02:02:16.026Z,0
2017-07-21T02:03:26.304Z,0
2017-07-21T02:04:36.279Z,0
2017-07-21T02:05:46.551Z,0
2017-07-21T02:06:56.504Z,0
2017-07-21T02:08:06.721Z,0
2017-07-21T02:09:16.999Z,0
2017-07-21T02:10:27.287Z,0
2017-07-21T02:11:37.267Z,0
2017-07-21T02:12:47.550Z,0
2017-07-21T02:13:57.762Z,0
2017-07-21T02:15:08.036Z,0
2017-07-21T02:16:18.009Z,0
2017-07-21T02:17:28.299Z,0
2017-07-21T02:18:38.572Z,0
2017-07-21T02:19:48.781Z,0
2017-07-21T02:20:58.747Z,0
2017-07-21T02:22:09.024Z,0
2017-07-21T02:23:18.698Z,0
2017-07-21T02:24:28.660Z,0
2017-07-21T02:25:38.889Z,0
2017-07-21T02:26:49.151Z,0
2017-07-21T02:27:59.126Z,0
2017-07-21T02:29:09.096Z,4
2017-07-21T02:30:19.073Z,4
2017-07-21T02:31:29.337Z,4
2017-07-21T02:32:38.999Z,4
2017-07-21T02:33:48.652Z,4
2017-07-21T02:34:58.306Z,4
2017-07-21T02:36:08.269Z,8
2017-07-21T02:37:18.502Z,8
2017-07-21T02:38:28.176Z,8
2017-07-21T02:39:38.133Z,8
2017-07-21T02:40:48.455Z,12
2017-07-21T02:41:58.435Z,16
2017-07-21T02:43:08.961Z,16
2017-07-21T02:44:19.224Z,20
2017-07-21T02:45:29.487Z,20
2017-07-21T02:46:39.773Z,28
2017-07-21T02:47:49.742Z,32
2017-07-21T02:49:00.259Z,36
2017-07-21T02:50:10.541Z,44
2017-07-21T02:51:20.506Z,48
2017-07-21T02:52:30.481Z,56
2017-07-21T02:53:40.145Z,64
2017-07-21T02:54:50.366Z,76
2017-07-21T02:56:00.345Z,84
2017-07-21T02:57:10.631Z,96
2017-07-21T02:58:20.605Z,108
2017-07-21T02:59:30.579Z,124
2017-07-21T03:00:40.183Z,140
2017-07-21T03:01:50.463Z,156
2017-07-21T03:03:00.426Z,172
2017-07-21T03:04:10.081Z,188
2017-07-21T03:05:20.358Z,204
2017-07-21T03:06:30.569Z,224
2017-07-21T03:07:40.839Z,248
2017-07-21T03:08:51.110Z,264
2017-07-21T03:10:01.386Z,288
2017-07-21T03:11:11.658Z,312
2017-07-21T03:12:21.555Z,336
2017-07-21T03:13:31.831Z,364
2017-07-21T03:14:41.786Z,392
2017-07-21T03:15:52.084Z,428
2017-07-21T03:17:01.753Z,460
2017-07-21T03:18:12.299Z,496
2017-07-21T03:19:22.593Z,528
2017-07-21T03:20:32.867Z,568
2017-07-21T03:21:43.153Z,600
2017-07-21T03:22:53.357Z,628
2017-07-21T03:24:03.872Z,644
2017-07-21T03:25:13.836Z,672
2017-07-21T03:26:23.792Z,716
2017-07-21T03:27:33.436Z,752
2017-07-21T03:28:43.715Z,768
2017-07-21T03:29:54.235Z,772
2017-07-21T03:31:04.448Z,788
2017-07-21T03:32:14.126Z,808
2017-07-21T03:33:24.397Z,852
2017-07-21T03:34:34.684Z,896
2017-07-21T03:35:45.217Z,944
2017-07-21T03:36:55.514Z,988
2017-07-21T03:38:05.783Z,1032
2017-07-21T03:39:16.062Z,1080
2017-07-21T03:40:26.346Z,1132
2017-07-21T03:41:36.868Z,1196
2017-07-21T03:42:46.849Z,1268
2017-07-21T03:43:57.131Z,1344
2017-07-21T03:45:07.410Z,1432
2017-07-21T03:46:17.392Z,1556
2017-07-21T03:47:27.614Z,1680
2017-07-21T03:48:37.907Z,1780
2017-07-21T03:49:47.859Z,1872
2017-07-21T03:50:57.821Z,1964
2017-07-21T03:52:07.776Z,2044
2017-07-21T03:53:17.992Z,2120
2017-07-21T03:54:28.268Z,2188
2017-07-21T03:55:37.929Z,2236
2017-07-21T03:56:48.220Z,2272
2017-07-21T03:57:58.192Z,2304
2017-07-21T03:59:08.719Z,2352
2017-07-21T04:00:19.007Z,2400
2017-07-21T04:01:28.659Z,2440
2017-07-21T04:02:38.937Z,2472
2017-07-21T04:03:49.229Z,2508
2017-07-21T04:04:59.462Z,2540
2017-07-21T04:06:09.121Z,2572
2017-07-21T04:07:19.098Z,2608
2017-07-21T04:08:29.603Z,2636
2017-07-21T04:09:39.560Z,2676
2017-07-21T04:10:50.099Z,2724
2017-07-21T04:12:00.381Z,2776
2017-07-21T04:13:10.663Z,2832
2017-07-21T04:14:20.938Z,2896
2017-07-21T04:15:30.588Z,2976
2017-07-21T04:16:40.822Z,3060
2017-07-21T04:17:51.099Z,3140
2017-07-21T04:19:01.390Z,3220
2017-07-21T04:20:11.681Z,3300
2017-07-21T04:21:21.966Z,3384
2017-07-21T04:22:32.720Z,3452
2017-07-21T04:23:42.694Z,3524
2017-07-21T04:24:52.667Z,3600
2017-07-21T04:26:02.957Z,3676
2017-07-21T04:27:13.226Z,3768
2017-07-21T04:28:23.450Z,3856
2017-07-21T04:29:33.445Z,3916
2017-07-21T04:30:43.717Z,4008
2017-07-21T04:31:54.048Z,4104
2017-07-21T04:33:04.016Z,4196
2017-07-21T04:34:14.554Z,4324
2017-07-21T04:35:24.846Z,4440
2017-07-21T04:36:35.145Z,4540
2017-07-21T04:37:45.112Z,4624
2017-07-21T04:38:55.396Z,4728
2017-07-21T04:40:05.922Z,4852
2017-07-21T04:41:16.211Z,4968
2017-07-21T04:42:25.553Z,5044
2017-07-21T04:43:35.834Z,5012
2017-07-21T04:44:46.115Z,4944
2017-07-21T04:45:56.630Z,5116
2017-07-21T04:47:06.917Z,5364
2017-07-21T04:48:16.570Z,5428
2017-07-21T04:49:26.825Z,5476
2017-07-21T04:50:36.799Z,5516
2017-07-21T04:51:47.335Z,5512
2017-07-21T04:52:57.610Z,5564
2017-07-21T04:54:07.268Z,5564
2017-07-21T04:55:17.242Z,5572
2017-07-21T04:56:27.514Z,5604
2017-07-21T04:57:37.736Z,5572
2017-07-21T04:58:47.997Z,5636
2017-07-21T04:59:57.974Z,5672
2017-07-21T05:01:08.266Z,5780
2017-07-21T05:02:18.560Z,5852
2017-07-21T05:03:28.783Z,5924
2017-07-21T05:04:38.748Z,6032
2017-07-21T05:05:49.023Z,6164
2017-07-21T05:06:59.297Z,6324
2017-07-21T05:08:09.569Z,6468
2017-07-21T05:09:20.156Z,6524
2017-07-21T05:10:30.412Z,6588
2017-07-21T05:11:40.714Z,6580
2017-07-21T05:12:51.011Z,6640
2017-07-21T05:14:01.277Z,6768
2017-07-21T05:15:11.826Z,6824
2017-07-21T05:16:22.119Z,6924
2017-07-21T05:17:32.389Z,7112
2017-07-21T05:18:42.678Z,7200
2017-07-21T05:19:52.629Z,7144
2017-07-21T05:21:02.845Z,7260
2017-07-21T05:22:13.134Z,7216
2017-07-21T05:23:23.103Z,7244
2017-07-21T05:24:32.762Z,7132
2017-07-21T05:25:43.044Z,6996
2017-07-21T05:26:53.574Z,7092
2017-07-21T05:28:03.853Z,7296
2017-07-21T05:29:14.151Z,7392
2017-07-21T05:30:24.148Z,7544
2017-07-21T05:31:34.104Z,7668
2017-07-21T05:32:44.654Z,7720
2017-07-21T05:33:54.950Z,7704
2017-07-21T05:35:05.276Z,7668
2017-07-21T05:36:15.554Z,7632
2017-07-21T05:37:25.530Z,7660
2017-07-21T05:38:36.053Z,7756
2017-07-21T05:39:46.339Z,7900
2017-07-21T05:40:56.609Z,8056
2017-07-21T05:42:06.880Z,8256
2017-07-21T05:43:16.830Z,8360
2017-07-21T05:44:27.353Z,8416
2017-07-21T05:45:37.645Z,8440
2017-07-21T05:46:47.920Z,8436
2017-07-21T05:47:58.191Z,8476
2017-07-21T05:49:08.481Z,8440
2017-07-21T05:50:19.005Z,8584
2017-07-21T05:51:28.977Z,8636
2017-07-21T05:52:39.247Z,8684
2017-07-21T05:53:49.559Z,8724
2017-07-21T05:54:59.510Z,8780
2017-07-21T05:56:10.033Z,8860
2017-07-21T05:57:20.006Z,8920
2017-07-21T05:58:30.288Z,8996
2017-07-21T05:59:40.280Z,9076
2017-07-21T06:00:50.558Z,9124
2017-07-21T06:02:01.096Z,9224
2017-07-21T06:03:11.381Z,9256
2017-07-21T06:04:21.638Z,9296
2017-07-21T06:05:31.293Z,9392
2017-07-21T06:06:41.570Z,9436
2017-07-21T06:07:52.100Z,9496
2017-07-21T06:09:02.372Z,9532
2017-07-21T06:10:12.676Z,9572
2017-07-21T06:11:22.649Z,9616
2017-07-21T06:12:32.927Z,9652
2017-07-21T06:13:43.446Z,9704
2017-07-21T06:14:53.717Z,9736
2017-07-21T06:16:04.001Z,9768
2017-07-21T06:17:14.289Z,9828
2017-07-21T06:18:24.571Z,9892
2017-07-21T06:19:35.119Z,9936
2017-07-21T06:20:45.086Z,9972
2017-07-21T06:21:55.062Z,10000
2017-07-21T06:23:05.345Z,10032
2017-07-21T06:24:15.635Z,10076
2017-07-21T06:25:26.190Z,10108
2017-07-21T06:26:36.472Z,10152
2017-07-21T06:27:45.821Z,10208
2017-07-21T06:28:55.786Z,10324
2017-07-21T06:30:05.778Z,10376
2017-07-21T06:31:16.298Z,10444
2017-07-21T06:32:26.595Z,10496
2017-07-21T06:33:36.893Z,10572
2017-07-21T06:34:47.186Z,10628
2017-07-21T06:35:57.477Z,10716
2017-07-21T06:37:07.697Z,10832
2017-07-21T06:38:17.684Z,10912
2017-07-21T06:39:27.958Z,10972
2017-07-21T06:40:38.246Z,11040
2017-07-21T06:41:48.522Z,11108
2017-07-21T06:42:58.428Z,11184
2017-07-21T06:44:08.711Z,11268
2017-07-21T06:45:18.685Z,11360
2017-07-21T06:46:28.979Z,11428
2017-07-21T06:47:38.951Z,11492
2017-07-21T06:48:49.489Z,11572
2017-07-21T06:49:59.458Z,11652
2017-07-21T06:51:09.134Z,11740
2017-07-21T06:52:19.458Z,11800
2017-07-21T06:53:29.738Z,11908
2017-07-21T06:54:39.653Z,11988
2017-07-21T06:55:49.989Z,12080
2017-07-21T06:57:00.295Z,12180
2017-07-21T06:58:10.604Z,12268
2017-07-21T06:59:20.896Z,12372
2017-07-21T07:00:31.181Z,12448
2017-07-21T07:01:41.160Z,12500
2017-07-21T07:02:51.447Z,12556
2017-07-21T07:04:01.433Z,12636
2017-07-21T07:05:11.398Z,12696
2017-07-21T07:06:21.948Z,12752
2017-07-21T07:07:32.233Z,12816
2017-07-21T07:08:42.507Z,12872
2017-07-21T07:09:52.772Z,12920
2017-07-21T07:11:03.091Z,12984
2017-07-21T07:12:13.311Z,13064
2017-07-21T07:13:23.617Z,13164
2017-07-21T07:14:33.899Z,13260
2017-07-21T07:15:44.172Z,13376
2017-07-21T07:16:54.469Z,13460
2017-07-21T07:18:04.704Z,13520
2017-07-21T07:19:14.993Z,13580
2017-07-21T07:20:24.684Z,13668
2017-07-21T07:21:34.976Z,13768
2017-07-21T07:22:45.267Z,13848
2017-07-21T07:23:55.835Z,13920
2017-07-21T07:25:06.124Z,14012
2017-07-21T07:26:16.433Z,14088
2017-07-21T07:27:26.718Z,14188
2017-07-21T07:28:36.998Z,14324
2017-07-21T07:29:47.533Z,14444
2017-07-21T07:30:57.825Z,14536
2017-07-21T07:32:08.169Z,14620
2017-07-21T07:33:18.137Z,14720
2017-07-21T07:34:28.098Z,14836
2017-07-21T07:35:38.328Z,14944
2017-07-21T07:36:48.316Z,14984
2017-07-21T07:37:58.300Z,15044
2017-07-21T07:39:08.270Z,15168
2017-07-21T07:40:18.547Z,15296
2017-07-21T07:41:28.787Z,15416
2017-07-21T07:42:39.085Z,15548
2017-07-21T07:43:49.386Z,15700
2017-07-21T07:44:59.687Z,15864
2017-07-21T07:46:09.676Z,16104
2017-07-21T07:47:20.232Z,18176
2017-07-21T07:48:30.518Z,9656
2017-07-21T07:49:40.193Z,11876
2017-07-21T07:50:49.543Z,16880
2017-07-21T07:51:59.834Z,17224
2017-07-21T07:53:10.063Z,17372
2017-07-21T07:54:20.355Z,17492
2017-07-21T07:55:30.341Z,17572
2017-07-21T07:56:40.327Z,17672
2017-07-21T07:57:50.608Z,17772
2017-07-21T07:59:00.831Z,17752
2017-07-21T08:00:10.813Z,17760
2017-07-21T08:01:20.796Z,17976
2017-07-21T08:02:30.805Z,18176
2017-07-21T08:03:40.810Z,18396
2017-07-21T08:04:51.351Z,18684
2017-07-21T08:06:01.643Z,19064
2017-07-21T08:07:11.923Z,19728
2017-07-21T08:08:22.200Z,20960
2017-07-21T08:09:32.477Z,21952
2017-07-21T08:10:43.000Z,23424
2017-07-21T08:11:53.270Z,24928
2017-07-21T08:13:03.569Z,26144
2017-07-21T08:14:13.846Z,26112
2017-07-21T08:15:23.861Z,24992
2017-07-21T08:16:34.389Z,23776
2017-07-21T08:17:44.398Z,23104
2017-07-21T08:18:54.712Z,24480
2017-07-21T08:20:04.725Z,25088
2017-07-21T08:21:14.079Z,23904
2017-07-21T08:22:24.658Z,24352
2017-07-21T08:23:34.633Z,25760
2017-07-21T08:24:44.919Z,26240
2017-07-21T08:25:54.590Z,26336
2017-07-21T08:27:04.569Z,24832
2017-07-21T08:28:15.093Z,26688
2017-07-21T08:29:25.368Z,29984
2017-07-21T08:30:35.678Z,30208
2017-07-21T08:31:46.004Z,28224
2017-07-21T08:32:56.285Z,28128
2017-07-21T08:34:06.833Z,27680
2017-07-21T08:35:17.112Z,25856
2017-07-21T08:36:27.117Z,26336
2017-07-21T08:37:37.461Z,38912
2017-07-21T08:38:47.764Z,54560
2017-07-21T08:39:57.998Z,54976
2017-07-21T08:41:08.277Z,43168
2017-07-21T08:42:18.600Z,52960
2017-07-21T08:43:28.914Z,48832
2017-07-21T08:44:39.202Z,52192
2017-07-21T08:45:49.750Z,53472
2017-07-21T08:47:00.041Z,57152
2017-07-21T08:48:10.404Z,58624
2017-07-21T08:49:20.385Z,24960
2017-07-21T08:50:30.693Z,52672
2017-07-21T08:51:40.916Z,54496
2017-07-21T08:52:51.199Z,56416
2017-07-21T08:54:01.189Z,56960
2017-07-21T08:55:11.495Z,52960
2017-07-21T08:56:21.788Z,49312
2017-07-21T08:57:32.019Z,58112
2017-07-21T08:58:42.015Z,60064
2017-07-21T08:59:52.013Z,59776
2017-07-21T09:01:02.329Z,58272
2017-07-21T09:02:12.666Z,59168
2017-07-21T09:03:23.133Z,58720
2017-07-21T09:04:33.115Z,59456
2017-07-21T09:05:43.128Z,59168
2017-07-21T09:06:53.101Z,54080
2017-07-21T09:08:03.095Z,62464
2017-07-21T09:09:13.746Z,62016
2017-07-21T09:10:23.750Z,61728
2017-07-21T09:11:33.424Z,62720
2017-07-21T09:12:43.404Z,63552
2017-07-21T09:13:53.392Z,62176
2017-07-21T09:15:03.997Z,62144
2017-07-21T09:16:13.672Z,65056
2017-07-21T09:17:23.345Z,66208
2017-07-21T09:18:33.656Z,68448
2017-07-21T09:19:43.950Z,69376
2017-07-21T09:20:54.481Z,69536
2017-07-21T09:22:04.773Z,68992
2017-07-21T09:23:15.067Z,74144
2017-07-21T09:24:24.733Z,76224
2017-07-21T09:25:35.016Z,63296
2017-07-21T09:26:45.268Z,71040
2017-07-21T09:27:55.240Z,71648
2017-07-21T09:29:05.595Z,70112
2017-07-21T09:30:15.870Z,72704
2017-07-21T09:31:25.546Z,72736
2017-07-21T09:32:36.110Z,73312
2017-07-21T09:33:46.092Z,73504
2017-07-21T09:34:56.385Z,77536
2017-07-21T09:36:06.687Z,76736
2017-07-21T09:37:16.972Z,50944
2017-07-21T09:38:27.207Z,33536
2017-07-21T09:39:37.198Z,79744
2017-07-21T09:40:47.481Z,78048
2017-07-21T09:41:57.783Z,71968
2017-07-21T09:43:08.081Z,83040
2017-07-21T09:44:18.629Z,57056
2017-07-21T09:45:28.608Z,40576
2017-07-21T09:46:38.907Z,58464
2017-07-21T09:47:49.206Z,86848
2017-07-21T09:48:59.505Z,88448
2017-07-21T09:50:10.049Z,90720
2017-07-21T09:51:20.372Z,86592
2017-07-21T09:52:30.673Z,88544
2017-07-21T09:53:40.966Z,89120
2017-07-21T09:54:50.955Z,87520
2017-07-21T09:56:01.510Z,89440
2017-07-21T09:57:11.802Z,89824
2017-07-21T09:58:22.096Z,87712
2017-07-21T09:59:31.765Z,88032
2017-07-21T10:00:42.047Z,91936
2017-07-21T10:01:52.606Z,87136
2017-07-21T10:03:02.931Z,88064
2017-07-21T10:04:13.229Z,91072
2017-07-21T10:05:23.231Z,86880
2017-07-21T10:06:33.231Z,86144
2017-07-21T10:07:43.778Z,90720
2017-07-21T10:08:53.753Z,91328
2017-07-21T10:10:03.432Z,91296
2017-07-21T10:11:13.731Z,89568
2017-07-21T10:12:24.039Z,93664
2017-07-21T10:13:34.838Z,95680
2017-07-21T10:14:44.834Z,90560
2017-07-21T10:15:55.128Z,91232
2017-07-21T10:17:05.453Z,94944
2017-07-21T10:18:15.748Z,94656
2017-07-21T10:19:25.999Z,100544
2017-07-21T10:20:36.292Z,51680
2017-07-21T10:21:46.298Z,73760
2017-07-21T10:22:56.575Z,43008
2017-07-21T10:24:06.886Z,88000
2017-07-21T10:25:17.109Z,82400
2017-07-21T10:26:27.404Z,45024
2017-07-21T10:27:37.717Z,39552
2017-07-21T10:28:48.012Z,111840
2017-07-21T10:29:58.305Z,81824
2017-07-21T10:31:08.586Z,50848
2017-07-21T10:32:18.909Z,100224
2017-07-21T10:33:29.203Z,98752
2017-07-21T10:34:39.487Z,105600
2017-07-21T10:35:49.779Z,108544
2017-07-21T10:37:00.004Z,101376
2017-07-21T10:38:10.298Z,110592
2017-07-21T10:39:20.612Z,106016
2017-07-21T10:40:30.903Z,101536
2017-07-21T10:41:41.249Z,100864
2017-07-21T10:42:51.792Z,100160
2017-07-21T10:44:01.787Z,98848
2017-07-21T10:45:12.107Z,103360
2017-07-21T10:46:22.083Z,109312
2017-07-21T10:47:32.078Z,106336
2017-07-21T10:48:42.318Z,110720
2017-07-21T10:49:51.688Z,108320
2017-07-21T10:51:02.007Z,114784
2017-07-21T10:52:12.014Z,110624
2017-07-21T10:53:22.301Z,110816
2017-07-21T10:54:32.868Z,88256
2017-07-21T10:55:43.181Z,96992
2017-07-21T10:56:53.473Z,59968
2017-07-21T10:58:03.769Z,114368
2017-07-21T10:59:13.764Z,100352
2017-07-21T11:00:24.320Z,87200
2017-07-21T11:01:34.318Z,121216
2017-07-21T11:02:44.301Z,94176
2017-07-21T11:03:54.593Z,92896
2017-07-21T11:05:04.280Z,111008
2017-07-21T11:06:14.538Z,78624
2017-07-21T11:07:24.523Z,115488
2017-07-21T11:08:34.520Z,116608
2017-07-21T11:09:44.508Z,115136
2017-07-21T11:10:54.518Z,114208
2017-07-21T11:12:05.072Z,123904
2017-07-21T11:13:15.587Z,115136
2017-07-21T11:14:25.270Z,114944
2017-07-21T11:15:35.268Z,125408
2017-07-21T11:16:45.284Z,103840
2017-07-21T11:17:55.849Z,122816
2017-07-21T11:19:05.827Z,92032
2017-07-21T11:20:16.125Z,93376
2017-07-21T11:21:26.419Z,92224
2017-07-21T11:22:36.716Z,91968
2017-07-21T11:23:46.948Z,69568
2017-07-21T11:24:57.246Z,76000
2017-07-21T11:26:07.532Z,63392
2017-07-21T11:27:17.829Z,68800
2017-07-21T11:28:27.809Z,68832
2017-07-21T11:29:38.049Z,60928
2017-07-21T11:30:48.348Z,68320
2017-07-21T11:31:58.650Z,77728
2017-07-21T11:33:08.332Z,73408
2017-07-21T11:34:18.643Z,99232
2017-07-21T11:35:28.893Z,78688
2017-07-21T11:36:38.858Z,110912
2017-07-21T11:37:48.533Z,79584
2017-07-21T11:38:58.213Z,77792
2017-07-21T11:40:08.188Z,80096
2017-07-21T11:41:18.437Z,76608
2017-07-21T11:42:28.728Z,78048
2017-07-21T11:43:39.029Z,98976
2017-07-21T11:44:49.335Z,81600
2017-07-21T11:45:59.310Z,76576
2017-07-21T11:47:09.866Z,98176
2017-07-21T11:48:19.538Z,97856
2017-07-21T11:49:29.520Z,134944
2017-07-21T11:50:39.826Z,131712
2017-07-21T11:51:49.491Z,108352
2017-07-21T11:52:59.403Z,129824
2017-07-21T11:54:09.706Z,134656
2017-07-21T11:55:19.680Z,102880
2017-07-21T11:56:30.015Z,74816
2017-07-21T11:57:40.307Z,74208
2017-07-21T11:58:51.215Z,87584
2017-07-21T12:00:01.195Z,64768
2017-07-21T12:01:11.474Z,74880
2017-07-21T12:02:21.468Z,131680
2017-07-21T12:03:31.451Z,77856
2017-07-21T12:04:42.003Z,79744
2017-07-21T12:05:52.287Z,65024
2017-07-21T12:07:02.608Z,61536
2017-07-21T12:08:12.931Z,61472
2017-07-21T12:09:22.937Z,65920
2017-07-21T12:10:33.482Z,96352
2017-07-21T12:11:43.782Z,90912
2017-07-21T12:12:53.784Z,142912
2017-07-21T12:14:03.451Z,100960
2017-07-21T12:15:13.451Z,129792
2017-07-21T12:16:23.998Z,122400
2017-07-21T12:17:34.312Z,132480
2017-07-21T12:18:44.624Z,123648
2017-07-21T12:19:54.613Z,91680
2017-07-21T12:21:04.911Z,127680
2017-07-21T12:22:15.550Z,122368
2017-07-21T12:23:25.548Z,59808
2017-07-21T12:24:35.554Z,130560
2017-07-21T12:25:45.525Z,101952
2017-07-21T12:26:55.814Z,108704
2017-07-21T12:28:06.378Z,128192
2017-07-21T12:29:16.684Z,130080
2017-07-21T12:30:26.981Z,122624
2017-07-21T12:31:37.288Z,127296
2017-07-21T12:32:47.284Z,89344
2017-07-21T12:33:57.528Z,125216
2017-07-21T12:35:07.837Z,129472
2017-07-21T12:36:18.137Z,127392
2017-07-21T12:37:28.458Z,122880
2017-07-21T12:38:38.452Z,120544
2017-07-21T12:39:48.686Z,121088
2017-07-21T12:40:58.680Z,125056
2017-07-21T12:42:08.986Z,131264
2017-07-21T12:43:18.975Z,134048
2017-07-21T12:44:29.295Z,69184
2017-07-21T12:45:39.896Z,128896
2017-07-21T12:46:49.879Z,123264
2017-07-21T12:48:00.187Z,117024
2017-07-21T12:49:10.476Z,116448
2017-07-21T12:50:20.153Z,38624
2017-07-21T12:51:30.398Z,41632
2017-07-21T12:52:40.690Z,42784
2017-07-21T12:53:50.986Z,72096
2017-07-21T12:55:00.973Z,114144
2017-07-21T12:56:10.972Z,122752
2017-07-21T12:57:21.525Z,125024
2017-07-21T12:58:31.845Z,38880
2017-07-21T12:59:41.917Z,132096
2017-07-21T13:00:51.923Z,138624
2017-07-21T13:02:02.222Z,130656
2017-07-21T13:03:12.481Z,127488
2017-07-21T13:04:22.812Z,130688
2017-07-21T13:05:33.132Z,132128
2017-07-21T13:06:43.420Z,126528
2017-07-21T13:07:53.734Z,123520
2017-07-21T13:09:04.312Z,126240
2017-07-21T13:10:14.302Z,129312
2017-07-21T13:11:24.611Z,126720
2017-07-21T13:12:34.925Z,124896
2017-07-21T13:13:45.271Z,126016
2017-07-21T13:14:55.838Z,124096
2017-07-21T13:16:05.846Z,123040
2017-07-21T13:17:16.126Z,114496
2017-07-21T13:18:26.427Z,115648
2017-07-21T13:19:36.413Z,124704
2017-07-21T13:20:46.973Z,124160
2017-07-21T13:21:56.982Z,124832
2017-07-21T13:23:06.970Z,132704
2017-07-21T13:24:17.265Z,133600
2017-07-21T13:25:27.548Z,145664
2017-07-21T13:26:38.123Z,146080
2017-07-21T13:27:48.407Z,140064
2017-07-21T13:28:58.396Z,147232
2017-07-21T13:30:08.678Z,135200
2017-07-21T13:31:18.653Z,117920
2017-07-21T13:32:29.330Z,132032
2017-07-21T13:33:39.310Z,127040
2017-07-21T13:34:49.610Z,119936
2017-07-21T13:35:59.609Z,126688
2017-07-21T13:37:09.931Z,129504
2017-07-21T13:38:20.534Z,127168
2017-07-21T13:39:30.553Z,124096
2017-07-21T13:40:40.548Z,118688
2017-07-21T13:41:50.847Z,122272
2017-07-21T13:43:00.813Z,133280
2017-07-21T13:44:11.354Z,135744
2017-07-21T13:45:21.312Z,126304
2017-07-21T13:46:31.354Z,131232
2017-07-21T13:47:41.650Z,136544
2017-07-21T13:48:51.666Z,127200
2017-07-21T13:50:02.242Z,120896
2017-07-21T13:51:11.915Z,124832
2017-07-21T13:52:22.218Z,122752
2017-07-21T13:53:32.535Z,128384
2017-07-21T13:54:42.837Z,123296
2017-07-21T13:55:53.381Z,125312
2017-07-21T13:57:03.669Z,127104
2017-07-21T13:58:13.958Z,125600
2017-07-21T13:59:24.378Z,126336
2017-07-21T14:00:34.676Z,126944
2017-07-21T14:01:45.284Z,126048
2017-07-21T14:02:55.603Z,130528
2017-07-21T14:04:05.922Z,129440
2017-07-21T14:05:16.239Z,122880
2017-07-21T14:06:26.545Z,121184
2017-07-21T14:07:36.530Z,49408
2017-07-21T14:08:46.843Z,126432
2017-07-21T14:09:57.174Z,123648
2017-07-21T14:11:07.159Z,120448
2017-07-21T14:12:17.487Z,37344
2017-07-21T14:13:28.039Z,37216
2017-07-21T14:14:38.350Z,35264
2017-07-21T14:15:48.344Z,34624
2017-07-21T14:16:58.638Z,35200
2017-07-21T14:18:08.951Z,34848
2017-07-21T14:19:19.181Z,34816
2017-07-21T14:20:29.184Z,89376
2017-07-21T14:21:39.494Z,80384
2017-07-21T14:22:50.015Z,39552
2017-07-21T14:24:00.310Z,84608
2017-07-21T14:25:10.871Z,44224
2017-07-21T14:26:21.173Z,112992
2017-07-21T14:27:31.168Z,116256
2017-07-21T14:28:41.457Z,118400
2017-07-21T14:29:51.738Z,110464
2017-07-21T14:31:02.342Z,118944
2017-07-21T14:32:12.326Z,114400
2017-07-21T14:33:22.317Z,118912
2017-07-21T14:34:31.993Z,125600
2017-07-21T14:35:41.976Z,121248
2017-07-21T14:36:52.544Z,35072
2017-07-21T14:38:02.199Z,35296
2017-07-21T14:39:12.586Z,115264
2017-07-21T14:40:22.885Z,109984
2017-07-21T14:41:33.186Z,109280
2017-07-21T14:42:43.747Z,33504
2017-07-21T14:43:54.033Z,40992
2017-07-21T14:45:04.321Z,45568
2017-07-21T14:46:14.316Z,27840
2017-07-21T14:47:24.302Z,29792
2017-07-21T14:48:34.538Z,28512
2017-07-21T14:49:44.522Z,28416
2017-07-21T14:50:54.828Z,28864
2017-07-21T14:52:05.122Z,30016
2017-07-21T14:53:15.409Z,34272
2017-07-21T14:54:25.702Z,34560
2017-07-21T14:55:35.995Z,35136
2017-07-21T14:56:46.273Z,34112
2017-07-21T14:57:56.577Z,33472
2017-07-21T14:59:06.561Z,33440
2017-07-21T15:00:16.794Z,35360
2017-07-21T15:01:27.083Z,44064
2017-07-21T15:02:36.773Z,100864
2017-07-21T15:03:47.290Z,113152
2017-07-21T15:04:57.579Z,112544
2017-07-21T15:06:07.813Z,110272
2017-07-21T15:07:18.109Z,108512
2017-07-21T15:08:28.409Z,109952
2017-07-21T15:09:38.685Z,65760
2017-07-21T15:10:48.992Z,35808
2017-07-21T15:11:59.542Z,45600
2017-07-21T15:13:09.533Z,39744
2017-07-21T15:14:19.848Z,68800
2017-07-21T15:15:29.841Z,36352
2017-07-21T15:16:40.121Z,34144
2017-07-21T15:17:50.676Z,32608
2017-07-21T15:19:00.657Z,30880
2017-07-21T15:20:10.970Z,31296
2017-07-21T15:21:20.968Z,34112
2017-07-21T15:22:30.965Z,64000
2017-07-21T15:23:41.510Z,94880
2017-07-21T15:24:51.501Z,99872
2017-07-21T15:26:01.494Z,99840
2017-07-21T15:27:11.460Z,52480
2017-07-21T15:28:21.453Z,35968